createdAt,value
2022-08-16T00:01:00.160Z,55.22
2022-08-16T00:03:26.432Z,55.42
2022-08-16T00:05:57.543Z,55.42
2022-08-16T00:08:36.265Z,55.38
2022-08-16T00:11:03.604Z,55.51
2022-08-16T00:13:29.794Z,55.52
2022-08-16T00:15:55.966Z,55.46
2022-08-16T00:18:28.070Z,55.44
2022-08-16T00:20:56.106Z,55.54
2022-08-16T00:23:24.584Z,55.75
2022-08-16T00:26:34.593Z,55.95
2022-08-16T00:28:46.993Z,56.07
2022-08-16T00:31:13.135Z,56.23
2022-08-16T00:33:41.015Z,56.44
2022-08-16T00:36:16.700Z,56.70
2022-08-16T00:38:43.751Z,57.18
2022-08-16T00:41:10.013Z,57.16
2022-08-16T00:43:42.813Z,57.19
2022-08-16T00:46:33.611Z,57.25
2022-08-16T00:48:55.830Z,57.47
2022-08-16T00:51:22.983Z,57.49
2022-08-16T00:53:49.689Z,57.70
2022-08-16T00:56:55.479Z,57.84
2022-08-16T00:59:03.270Z,57.95
2022-08-16T01:01:30.574Z,58.26
2022-08-16T01:03:56.836Z,58.14
2022-08-16T01:06:40.591Z,58.02
2022-08-16T01:09:09.902Z,58.19
2022-08-16T01:11:36.780Z,58.27
2022-08-16T01:14:20.387Z,58.53
2022-08-16T01:16:55.886Z,58.79
2022-08-16T01:19:22.337Z,58.90
2022-08-16T01:21:48.660Z,58.94
2022-08-16T01:24:45.296Z,58.92
2022-08-16T01:27:03.736Z,59.20
2022-08-16T01:29:49.619Z,59.22
2022-08-16T01:32:31.551Z,59.37
2022-08-16T01:35:00.083Z,59.49
2022-08-16T01:37:26.812Z,59.56
2022-08-16T01:40:01.838Z,59.62
2022-08-16T01:42:33.165Z,59.63
2022-08-16T01:45:00.145Z,59.82
2022-08-16T01:47:26.272Z,59.74
2022-08-16T01:50:42.807Z,59.86
2022-08-16T01:52:41.626Z,59.72
2022-08-16T01:55:12.744Z,59.68
2022-08-16T01:57:40.722Z,59.83
2022-08-16T02:00:20.066Z,59.94
2022-08-16T02:02:55.169Z,60.14
2022-08-16T02:05:23.644Z,59.96
2022-08-16T02:07:52.080Z,60.03
2022-08-16T02:10:18.459Z,60.12
2022-08-16T02:12:51.051Z,59.85
2022-08-16T02:15:18.345Z,60.04
2022-08-16T02:17:52.715Z,60.08
2022-08-16T02:20:18.926Z,60.00
2022-08-16T02:22:52.649Z,60.05
2022-08-16T02:25:21.532Z,59.87
2022-08-16T02:27:50.662Z,59.90
2022-08-16T02:30:37.032Z,59.87
2022-08-16T02:33:04.479Z,59.96
2022-08-16T02:35:31.812Z,60.16
2022-08-16T02:38:01.650Z,60.08
2022-08-16T02:40:35.237Z,60.24
2022-08-16T02:43:01.865Z,60.29
2022-08-16T02:45:28.986Z,60.31
2022-08-16T02:48:00.518Z,60.30
2022-08-16T02:50:54.004Z,60.37
2022-08-16T02:53:27.415Z,60.58
2022-08-16T02:55:53.563Z,60.45
2022-08-16T02:58:19.693Z,60.53
2022-08-16T03:00:51.108Z,60.85
2022-08-16T03:03:18.575Z,60.77
2022-08-16T03:05:44.699Z,60.89
2022-08-16T03:08:51.125Z,60.55
2022-08-16T03:11:02.359Z,60.70
2022-08-16T03:13:28.501Z,60.64
2022-08-16T03:15:56.147Z,60.63
2022-08-16T03:18:34.569Z,60.81
2022-08-16T03:21:09.995Z,60.90
2022-08-16T03:23:36.306Z,60.91
2022-08-16T03:26:02.445Z,60.94
2022-08-16T03:28:28.604Z,61.01
2022-08-16T03:30:56.478Z,61.09
2022-08-16T03:33:22.611Z,61.45
2022-08-16T03:35:49.569Z,61.14
2022-08-16T03:38:32.587Z,61.12
2022-08-16T03:40:59.934Z,61.10
2022-08-16T03:43:51.949Z,61.08
2022-08-16T03:46:12.184Z,61.10
2022-08-16T03:48:58.284Z,61.09
2022-08-16T03:51:25.457Z,61.26
2022-08-16T03:53:57.774Z,61.12
2022-08-16T03:56:27.609Z,61.36
2022-08-16T03:58:56.578Z,61.21
2022-08-16T04:01:24.252Z,61.14
2022-08-16T04:03:55.627Z,61.37
2022-08-16T04:06:21.748Z,61.23
2022-08-16T04:08:47.885Z,61.43
2022-08-16T04:11:16.422Z,61.30
2022-08-16T04:14:01.310Z,61.32
2022-08-16T04:16:29.449Z,61.39
2022-08-16T04:19:02.589Z,61.51
2022-08-16T04:21:30.479Z,61.69
2022-08-16T04:23:58.270Z,61.40
2022-08-16T04:26:24.404Z,61.57
2022-08-16T04:29:16.351Z,61.59
2022-08-16T04:31:43.801Z,61.45
2022-08-16T04:34:10.046Z,61.59
2022-08-16T04:36:36.181Z,61.59
2022-08-16T04:39:02.603Z,61.71
2022-08-16T04:41:32.861Z,61.70
2022-08-16T04:44:32.356Z,61.96
2022-08-16T04:47:02.456Z,61.99
2022-08-16T04:49:43.584Z,62.17
2022-08-16T04:52:32.852Z,62.07
2022-08-16T04:54:58.323Z,62.09
2022-08-16T04:57:26.105Z,62.24
2022-08-16T04:59:56.386Z,62.32
2022-08-16T05:02:41.414Z,62.27
2022-08-16T05:05:08.821Z,62.41
2022-08-16T05:07:57.763Z,62.28
2022-08-16T05:10:24.861Z,62.23
2022-08-16T05:12:51.003Z,62.50
2022-08-16T05:15:18.384Z,62.30
2022-08-16T05:17:44.810Z,62.40
2022-08-16T05:20:38.906Z,62.27
2022-08-16T05:22:59.130Z,62.27
2022-08-16T05:25:25.496Z,62.25
2022-08-16T05:28:07.000Z,62.19
2022-08-16T05:30:37.260Z,62.25
2022-08-16T05:33:04.542Z,62.42
2022-08-16T05:35:30.689Z,62.38
2022-08-16T05:37:58.774Z,62.54
2022-08-16T05:40:25.100Z,62.67
2022-08-16T05:42:53.329Z,62.69
2022-08-16T05:45:23.167Z,62.75
2022-08-16T05:47:49.470Z,62.93
2022-08-16T05:50:28.338Z,62.99
2022-08-16T05:53:00.746Z,63.05
2022-08-16T05:55:27.527Z,62.94
2022-08-16T05:57:56.153Z,63.06
2022-08-16T06:00:22.908Z,62.94
2022-08-16T06:02:49.243Z,63.00
2022-08-16T06:05:16.304Z,62.93
2022-08-16T06:07:42.446Z,62.84
2022-08-16T06:10:09.626Z,62.94
2022-08-16T06:12:35.990Z,62.77
2022-08-16T06:15:07.683Z,62.94
2022-08-16T06:17:43.165Z,62.70
2022-08-16T06:20:10.393Z,62.80
2022-08-16T06:22:37.677Z,62.49
2022-08-16T06:25:35.564Z,62.41
2022-08-16T06:28:03.085Z,62.58
2022-08-16T06:30:35.194Z,62.40
2022-08-16T06:33:01.368Z,62.46
2022-08-16T06:35:40.137Z,62.31
2022-08-16T06:38:07.756Z,62.29
2022-08-16T06:40:53.883Z,62.18
2022-08-16T06:43:20.582Z,62.05
2022-08-16T06:45:53.796Z,61.91
2022-08-16T06:48:19.965Z,61.79
2022-08-16T06:50:59.380Z,61.59
2022-08-16T06:53:25.545Z,61.34
2022-08-16T06:55:55.818Z,61.32
2022-08-16T06:58:31.944Z,61.02
2022-08-16T07:00:59.843Z,60.84
2022-08-16T07:03:27.629Z,60.59
2022-08-16T07:05:58.265Z,60.72
2022-08-16T07:08:24.747Z,60.37
2022-08-16T07:10:53.525Z,60.17
2022-08-16T07:13:43.660Z,59.97
2022-08-16T07:16:06.566Z,59.95
2022-08-16T07:18:32.706Z,59.73
2022-08-16T07:21:01.781Z,59.53
2022-08-16T07:23:34.979Z,59.37
2022-08-16T07:26:05.193Z,59.11
2022-08-16T07:28:31.885Z,59.14
2022-08-16T07:30:58.021Z,58.83
2022-08-16T07:33:51.972Z,58.50
2022-08-16T07:36:10.283Z,58.49
2022-08-16T07:38:36.425Z,58.39
2022-08-16T07:41:09.853Z,58.15
2022-08-16T07:43:40.390Z,58.07
2022-08-16T07:46:39.080Z,57.86
2022-08-16T07:48:55.183Z,57.77
2022-08-16T07:51:21.461Z,57.58
2022-08-16T07:53:49.525Z,57.44
2022-08-16T07:56:33.817Z,57.29
2022-08-16T07:59:03.174Z,57.22
2022-08-16T08:01:29.328Z,56.80
2022-08-16T08:03:56.906Z,56.75
2022-08-16T08:06:25.022Z,56.36
2022-08-16T08:08:52.808Z,56.57
2022-08-16T08:11:24.045Z,56.17
2022-08-16T08:13:54.140Z,56.10
2022-08-16T08:16:20.902Z,55.93
2022-08-16T08:18:50.593Z,55.87
2022-08-16T08:21:27.360Z,55.94
2022-08-16T08:23:53.924Z,55.75
2022-08-16T08:26:20.877Z,55.36
2022-08-16T08:28:47.111Z,55.38
2022-08-16T08:31:16.186Z,55.19
2022-08-16T08:33:47.150Z,55.02
2022-08-16T08:36:21.920Z,54.89
2022-08-16T08:38:48.504Z,54.85
2022-08-16T08:41:18.835Z,54.66
2022-08-16T08:43:45.828Z,54.29
2022-08-16T08:46:12.431Z,53.79
2022-08-16T08:48:44.625Z,53.52
2022-08-16T08:51:27.554Z,53.38
2022-08-16T08:53:58.759Z,53.43
2022-08-16T08:56:25.310Z,53.11
2022-08-16T08:58:54.728Z,53.05
2022-08-16T09:01:31.347Z,52.72
2022-08-16T09:03:58.301Z,52.47
2022-08-16T09:06:24.509Z,52.35
2022-08-16T09:08:52.602Z,52.16
2022-08-16T09:11:18.762Z,51.92
2022-08-16T09:13:47.357Z,51.48
2022-08-16T09:16:14.692Z,51.27
2022-08-16T09:19:03.972Z,50.99
2022-08-16T09:21:31.433Z,50.79
2022-08-16T09:23:57.795Z,50.67
2022-08-16T09:26:45.375Z,50.61
2022-08-16T09:29:17.062Z,50.33
2022-08-16T09:31:53.558Z,50.32
2022-08-16T09:34:19.975Z,50.30
2022-08-16T09:36:46.774Z,50.34
2022-08-16T09:39:16.131Z,50.21
2022-08-16T09:41:42.692Z,49.84
2022-08-16T09:45:11.027Z,49.56
2022-08-16T09:46:57.772Z,49.57
2022-08-16T09:49:24.089Z,49.45
2022-08-16T09:51:50.378Z,49.08
2022-08-16T09:54:20.750Z,48.66
2022-08-16T09:56:51.619Z,48.17
2022-08-16T09:59:19.895Z,47.80
2022-08-16T10:01:47.164Z,47.69
2022-08-16T10:04:30.948Z,47.48
2022-08-16T10:09:45.186Z,46.17
2022-08-16T10:12:19.283Z,45.66
2022-08-16T10:14:46.236Z,45.39
2022-08-16T10:17:12.558Z,44.32
2022-08-16T10:19:39.283Z,44.05
2022-08-16T10:22:05.659Z,43.79
2022-08-16T10:24:31.853Z,43.91
2022-08-16T10:27:16.840Z,43.60
2022-08-16T10:30:00.290Z,43.50
2022-08-16T10:32:30.560Z,43.20
2022-08-16T10:34:58.424Z,43.17
2022-08-16T10:37:36.076Z,42.77
2022-08-16T10:40:02.804Z,42.70
2022-08-16T10:42:29.225Z,42.68
2022-08-16T10:44:56.049Z,42.32
2022-08-16T10:47:23.284Z,42.03
2022-08-16T10:49:49.809Z,42.17
2022-08-16T10:52:18.941Z,42.29
2022-08-16T10:57:32.756Z,42.24
2022-08-16T10:59:59.341Z,42.28
2022-08-16T11:02:59.321Z,42.25
2022-08-16T11:05:14.133Z,42.47
2022-08-16T11:07:45.184Z,42.29
2022-08-16T11:11:04.821Z,41.81
2022-08-16T11:15:55.879Z,41.27
2022-08-16T11:19:04.009Z,41.32
2022-08-16T11:21:09.853Z,41.08
2022-08-16T11:23:57.134Z,40.72
2022-08-16T11:26:24.933Z,40.67
2022-08-16T11:31:37.370Z,40.05
2022-08-16T11:34:04.436Z,39.57
2022-08-16T11:36:30.730Z,39.35
2022-08-16T11:38:57.494Z,39.48
2022-08-16T11:41:24.519Z,39.49
2022-08-16T11:43:52.677Z,39.50
2022-08-16T11:46:43.163Z,39.62
2022-08-16T11:49:06.705Z,39.83
2022-08-16T11:51:36.163Z,39.97
2022-08-16T11:54:02.309Z,39.81
2022-08-16T11:56:51.586Z,39.60
2022-08-16T11:59:17.482Z,39.84
2022-08-16T12:01:44.465Z,39.62
2022-08-16T12:04:22.182Z,39.30
2022-08-16T12:06:48.674Z,39.42
2022-08-16T12:09:16.146Z,39.21
2022-08-16T12:11:43.777Z,39.11
2022-08-16T12:14:13.251Z,38.88
2022-08-16T12:16:39.615Z,38.73
2022-08-16T12:19:14.991Z,38.51
2022-08-16T12:21:58.773Z,38.36
2022-08-16T12:24:25.729Z,38.42
2022-08-16T12:26:51.854Z,38.37
2022-08-16T12:29:17.994Z,38.35
2022-08-16T12:32:00.749Z,38.13
2022-08-16T12:34:30.803Z,38.21
2022-08-16T12:36:57.031Z,37.83
2022-08-16T12:39:23.491Z,37.54
2022-08-16T12:41:55.301Z,37.42
2022-08-16T12:44:21.603Z,37.57
2022-08-16T12:46:48.348Z,37.11
2022-08-16T12:49:14.489Z,37.23
2022-08-16T12:51:59.701Z,36.66
2022-08-16T12:54:27.139Z,36.75
2022-08-16T12:56:54.191Z,36.62
2022-08-16T12:59:21.758Z,36.51
2022-08-16T13:01:50.471Z,36.63
2022-08-16T13:04:24.372Z,36.63
2022-08-16T13:06:52.409Z,36.48
2022-08-16T13:09:19.054Z,36.15
2022-08-16T13:11:49.209Z,35.80
2022-08-16T13:14:32.111Z,35.31
2022-08-16T13:16:59.574Z,35.22
2022-08-16T13:19:31.983Z,35.21
2022-08-16T13:22:05.656Z,35.48
2022-08-16T13:24:31.779Z,34.95
2022-08-16T13:27:01.613Z,34.97
2022-08-16T13:29:39.758Z,35.01
2022-08-16T13:32:08.296Z,34.74
2022-08-16T13:34:34.890Z,34.98
2022-08-16T13:37:01.021Z,34.74
2022-08-16T13:39:27.319Z,34.51
2022-08-16T13:41:58.126Z,34.13
2022-08-16T13:44:48.699Z,33.95
2022-08-16T13:47:10.416Z,33.84
2022-08-16T13:49:36.555Z,34.26
2022-08-16T13:52:02.694Z,34.10
2022-08-16T13:54:31.793Z,33.70
2022-08-16T13:56:58.310Z,34.03
2022-08-16T13:59:24.445Z,33.54
2022-08-16T14:01:59.516Z,33.61
2022-08-16T14:04:26.499Z,33.34
2022-08-16T14:06:53.080Z,33.48
2022-08-16T14:09:20.050Z,33.16
2022-08-16T14:11:46.345Z,32.94
2022-08-16T14:14:15.624Z,33.09
2022-08-16T14:16:41.958Z,32.45
2022-08-16T14:19:08.088Z,32.43
2022-08-16T14:21:34.837Z,32.06
2022-08-16T14:24:01.942Z,32.03
2022-08-16T14:26:34.104Z,31.52
2022-08-16T14:29:03.685Z,31.30
2022-08-16T14:31:31.801Z,31.42
2022-08-16T14:33:58.907Z,31.43
2022-08-16T14:36:30.084Z,31.34
2022-08-16T14:38:56.685Z,30.86
2022-08-16T14:41:23.567Z,30.08
2022-08-16T14:43:49.986Z,30.23
2022-08-16T14:46:16.180Z,29.36
2022-08-16T14:48:42.351Z,29.21
2022-08-16T14:51:08.494Z,28.96
2022-08-16T14:53:34.747Z,29.00
2022-08-16T14:56:02.197Z,28.39
2022-08-16T14:58:34.622Z,28.36
2022-08-16T15:01:02.985Z,27.99
2022-08-16T15:03:29.206Z,28.34
2022-08-16T15:05:59.398Z,28.42
2022-08-16T15:08:36.665Z,28.21
2022-08-16T15:11:03.522Z,27.83
2022-08-16T15:13:29.915Z,28.45
2022-08-16T15:15:58.955Z,28.21
2022-08-16T15:18:28.537Z,28.51
2022-08-16T15:20:58.213Z,27.85
2022-08-16T15:23:25.241Z,27.27
2022-08-16T15:25:59.755Z,26.88
2022-08-16T15:28:31.744Z,26.34
2022-08-16T15:31:00.817Z,26.23
2022-08-16T15:33:29.723Z,25.98
2022-08-16T15:35:58.619Z,25.59
2022-08-16T15:38:58.058Z,26.01
2022-08-16T15:41:10.960Z,25.78
2022-08-16T15:43:40.388Z,25.63
2022-08-16T15:46:06.674Z,25.63
2022-08-16T15:48:34.854Z,25.06
2022-08-16T15:51:06.482Z,24.74
2022-08-16T15:53:37.606Z,24.88
2022-08-16T15:56:08.135Z,24.45
2022-08-16T15:58:35.393Z,24.55
2022-08-16T16:01:04.964Z,24.66
2022-08-16T16:03:34.648Z,24.85
2022-08-16T16:06:01.076Z,25.10
2022-08-16T16:08:27.496Z,25.37
2022-08-16T16:10:54.867Z,25.49
2022-08-16T16:13:21.093Z,25.70
2022-08-16T16:15:49.063Z,25.61
2022-08-16T16:18:15.205Z,25.55
2022-08-16T16:20:41.424Z,25.67
2022-08-16T16:23:10.325Z,25.70
2022-08-16T16:25:37.034Z,25.92
2022-08-16T16:28:03.201Z,25.51
2022-08-16T16:30:45.092Z,25.29
2022-08-16T16:33:11.625Z,24.76
2022-08-16T16:35:41.817Z,24.42
2022-08-16T16:38:13.114Z,24.56
2022-08-16T16:40:46.658Z,24.59
2022-08-16T16:43:20.341Z,25.19
2022-08-16T16:45:52.262Z,25.50
2022-08-16T16:48:34.454Z,26.11
2022-08-16T16:51:01.518Z,27.76
2022-08-16T16:53:31.856Z,27.91
2022-08-16T16:56:03.858Z,27.88
2022-08-16T16:58:36.786Z,28.20
2022-08-16T17:01:03.024Z,28.45
2022-08-16T17:03:29.890Z,28.31
2022-08-16T17:05:57.187Z,28.51
2022-08-16T17:08:28.052Z,28.67
2022-08-16T17:10:54.893Z,28.98
2022-08-16T17:13:21.555Z,29.17
2022-08-16T17:15:52.324Z,29.45
2022-08-16T17:19:15.690Z,29.63
2022-08-16T17:21:07.481Z,29.70
2022-08-16T17:23:59.226Z,29.70
2022-08-16T17:26:19.776Z,30.01
2022-08-16T17:28:58.028Z,29.96
2022-08-16T17:31:38.467Z,29.94
2022-08-16T17:34:29.147Z,30.24
2022-08-16T17:36:54.665Z,30.22
2022-08-16T17:39:20.942Z,29.91
2022-08-16T17:41:49.905Z,30.03
2022-08-16T17:44:17.943Z,29.88
2022-08-16T17:46:51.734Z,29.85
2022-08-16T17:49:18.751Z,30.25
2022-08-16T17:51:44.877Z,30.53
2022-08-16T17:54:20.379Z,30.68
2022-08-16T17:56:57.066Z,30.86
2022-08-16T17:59:23.216Z,31.16
2022-08-16T18:01:49.937Z,31.56
2022-08-16T18:04:49.411Z,31.95
2022-08-16T18:07:02.288Z,31.81
2022-08-16T18:09:28.421Z,32.10
2022-08-16T18:11:56.802Z,32.45
2022-08-16T18:14:50.986Z,32.93
2022-08-16T18:17:10.160Z,32.76
2022-08-16T18:19:36.783Z,32.92
2022-08-16T18:22:03.133Z,33.24
2022-08-16T18:24:29.294Z,33.73
2022-08-16T18:26:55.450Z,34.03
2022-08-16T18:29:21.585Z,34.30
2022-08-16T18:31:47.727Z,34.14
2022-08-16T18:34:13.891Z,34.21
2022-08-16T18:36:40.062Z,34.52
2022-08-16T18:39:06.268Z,34.69
2022-08-16T18:41:32.718Z,35.16
2022-08-16T18:44:25.809Z,35.14
2022-08-16T18:46:44.989Z,35.30
2022-08-16T18:49:11.142Z,35.79
2022-08-16T18:51:39.408Z,35.55
2022-08-16T18:54:05.584Z,35.84
2022-08-16T18:56:55.139Z,35.94
2022-08-16T18:59:17.886Z,36.31
2022-08-16T19:01:45.491Z,36.50
2022-08-16T19:04:48.114Z,36.73
2022-08-16T19:06:57.862Z,37.09
2022-08-16T19:09:24.000Z,37.25
2022-08-16T19:11:50.128Z,37.54
2022-08-16T19:14:16.303Z,37.72
2022-08-16T19:16:42.493Z,37.68
2022-08-16T19:19:08.629Z,37.90
2022-08-16T19:21:35.065Z,37.98
2022-08-16T19:24:01.197Z,38.11
2022-08-16T19:26:29.665Z,38.20
2022-08-16T19:28:59.649Z,38.43
2022-08-16T19:31:29.612Z,38.51
2022-08-16T19:33:55.745Z,38.78
2022-08-16T19:36:31.619Z,38.82
2022-08-16T19:39:05.249Z,39.08
2022-08-16T19:41:31.893Z,39.24
2022-08-16T19:43:59.042Z,39.32
2022-08-16T19:46:25.181Z,39.61
2022-08-16T19:48:51.344Z,39.77
2022-08-16T19:51:17.480Z,39.84
2022-08-16T19:53:43.610Z,40.07
2022-08-16T19:56:09.777Z,40.26
2022-08-16T19:58:35.904Z,40.32
2022-08-16T20:01:02.050Z,40.39
2022-08-16T20:03:28.257Z,40.45
2022-08-16T20:05:54.439Z,40.60
2022-08-16T20:08:20.573Z,40.76
2022-08-16T20:10:46.774Z,40.96
2022-08-16T20:13:12.910Z,41.10
2022-08-16T20:15:41.209Z,41.24
2022-08-16T20:18:23.057Z,41.35
2022-08-16T20:20:51.382Z,41.44
2022-08-16T20:23:24.524Z,41.56
2022-08-16T20:25:51.234Z,41.75
2022-08-16T20:28:52.113Z,41.84
2022-08-16T20:31:03.503Z,41.88
2022-08-16T20:33:29.650Z,42.14
2022-08-16T20:35:55.795Z,42.26
2022-08-16T20:38:21.954Z,42.33
2022-08-16T20:40:48.123Z,42.65
2022-08-16T20:43:14.278Z,42.76
2022-08-16T20:45:40.486Z,42.93
2022-08-16T20:48:06.621Z,42.99
2022-08-16T20:50:32.780Z,43.21
2022-08-16T20:52:58.957Z,43.10
2022-08-16T20:55:25.096Z,43.24
2022-08-16T20:57:55.067Z,43.28
2022-08-16T21:00:21.251Z,43.59
2022-08-16T21:02:47.429Z,43.95
2022-08-16T21:05:13.588Z,44.09
2022-08-16T21:07:40.237Z,44.28
2022-08-16T21:10:06.413Z,44.29
2022-08-16T21:12:34.723Z,44.38
2022-08-16T21:15:03.953Z,44.66
2022-08-16T21:17:30.083Z,44.84
2022-08-16T21:19:56.214Z,45.25
2022-08-16T21:22:22.382Z,45.53
2022-08-16T21:24:48.529Z,45.67
2022-08-16T21:27:20.099Z,45.64
2022-08-16T21:29:47.670Z,45.47
2022-08-16T21:32:14.663Z,45.33
2022-08-16T21:34:40.798Z,45.32
2022-08-16T21:37:06.985Z,45.51
2022-08-16T21:39:33.182Z,45.57
2022-08-16T21:41:59.334Z,45.56
2022-08-16T21:44:25.477Z,45.49
2022-08-16T21:47:03.113Z,45.18
2022-08-16T21:49:29.283Z,45.35
2022-08-16T21:51:55.422Z,45.40
2022-08-16T21:54:21.554Z,45.31
2022-08-16T21:56:47.714Z,45.41
2022-08-16T21:59:13.862Z,45.35
2022-08-16T22:01:40.055Z,45.37
2022-08-16T22:04:36.598Z,45.55
2022-08-16T22:06:52.357Z,45.74
2022-08-16T22:09:18.503Z,46.13
2022-08-16T22:11:44.655Z,46.61
2022-08-16T22:14:10.807Z,46.77
2022-08-16T22:16:36.959Z,46.93
2022-08-16T22:19:03.078Z,47.16
2022-08-16T22:21:29.205Z,47.22
2022-08-16T22:23:57.921Z,47.39
2022-08-16T22:26:30.460Z,47.55
2022-08-16T22:28:57.368Z,47.75
2022-08-16T22:31:23.504Z,47.85
2022-08-16T22:33:50.256Z,47.97
2022-08-16T22:36:16.412Z,47.97
2022-08-16T22:38:55.205Z,48.04
2022-08-16T22:41:23.016Z,47.95
2022-08-16T22:43:49.199Z,48.07
2022-08-16T22:46:15.342Z,48.14
2022-08-16T22:48:42.551Z,48.10
2022-08-16T22:51:09.034Z,48.24
2022-08-16T22:53:35.187Z,48.51
2022-08-16T22:56:03.694Z,48.63
2022-08-16T22:58:36.676Z,48.64
2022-08-16T23:01:03.479Z,48.59
2022-08-16T23:03:30.162Z,48.47
2022-08-16T23:05:56.310Z,48.34
2022-08-16T23:08:34.996Z,48.28
2022-08-16T23:11:06.335Z,48.45
2022-08-16T23:13:32.464Z,48.24
2022-08-16T23:15:58.602Z,48.36
2022-08-16T23:18:26.960Z,48.37
2022-08-16T23:20:53.278Z,48.62
2022-08-16T23:23:21.843Z,48.92
2022-08-16T23:25:48.315Z,48.74
2022-08-16T23:28:14.456Z,48.96
2022-08-16T23:30:40.782Z,49.29
2022-08-16T23:33:07.538Z,49.28
2022-08-16T23:35:45.015Z,49.31
2022-08-16T23:38:37.877Z,49.71
2022-08-16T23:40:57.994Z,49.85
2022-08-16T23:43:24.140Z,49.76
2022-08-16T23:45:50.280Z,49.79
2022-08-16T23:48:16.423Z,50.15
2022-08-16T23:50:42.624Z,50.05
2022-08-16T23:53:08.771Z,50.08
2022-08-16T23:55:34.910Z,50.19
2022-08-16T23:58:01.071Z,50.12
